createdAt,value
2019-02-18T00:00:41.135Z,99.90
2019-02-18T00:03:09.947Z,99.90
2019-02-18T00:05:38.407Z,99.90
2019-02-18T00:08:07.021Z,99.90
2019-02-18T00:10:35.474Z,99.90
2019-02-18T00:13:04.025Z,99.90
2019-02-18T00:15:32.584Z,99.90
2019-02-18T00:18:01.154Z,99.90
2019-02-18T00:20:29.676Z,99.90
2019-02-18T00:22:58.175Z,99.90
2019-02-18T00:25:26.704Z,99.90
2019-02-18T00:27:55.169Z,99.90
2019-02-18T00:30:23.752Z,99.90
2019-02-18T00:32:52.304Z,99.90
2019-02-18T00:35:20.758Z,99.90
2019-02-18T00:37:49.394Z,99.90
2019-02-18T00:40:17.936Z,99.90
2019-02-18T00:42:46.483Z,99.90
2019-02-18T00:45:15.020Z,99.90
2019-02-18T00:47:43.481Z,99.90
2019-02-18T00:50:12.675Z,99.90
2019-02-18T00:52:41.144Z,99.90
2019-02-18T00:55:09.872Z,99.90
2019-02-18T00:57:38.327Z,99.90
2019-02-18T01:00:12.693Z,99.90
2019-02-18T01:02:41.222Z,99.90
2019-02-18T01:05:11.326Z,99.90
2019-02-18T01:07:39.922Z,99.90
2019-02-18T01:10:11.418Z,99.90
2019-02-18T01:12:40.177Z,99.90
2019-02-18T01:15:11.543Z,99.90
2019-02-18T01:17:40.087Z,99.90
2019-02-18T01:20:11.386Z,99.90
2019-02-18T01:22:39.917Z,99.90
2019-02-18T01:25:10.949Z,99.90
2019-02-18T01:27:39.412Z,99.90
2019-02-18T01:30:13.791Z,99.90
2019-02-18T01:32:42.290Z,99.90
2019-02-18T01:35:11.497Z,99.90
2019-02-18T01:37:45.784Z,99.90
2019-02-18T01:40:12.862Z,99.90
2019-02-18T01:42:41.390Z,99.90
2019-02-18T01:45:14.360Z,99.90
2019-02-18T01:47:42.810Z,99.90
2019-02-18T01:50:30.619Z,99.90
2019-02-18T01:52:59.073Z,99.90
2019-02-18T01:55:27.536Z,99.90
2019-02-18T01:57:56.020Z,99.90
2019-02-18T02:00:24.473Z,99.90
2019-02-18T02:02:52.926Z,99.90
2019-02-18T02:05:21.413Z,99.90
2019-02-18T02:07:56.244Z,99.90
2019-02-18T02:10:20.079Z,99.90
2019-02-18T02:12:48.544Z,99.90
2019-02-18T02:15:26.166Z,99.90
2019-02-18T02:17:54.707Z,99.90
2019-02-18T02:20:23.235Z,99.90
2019-02-18T02:22:52.131Z,99.90
2019-02-18T02:25:20.662Z,99.90
2019-02-18T02:27:49.151Z,99.90
2019-02-18T02:30:17.683Z,99.90
2019-02-18T02:32:46.138Z,99.90
2019-02-18T02:35:14.639Z,99.90
2019-02-18T02:37:43.106Z,99.90
2019-02-18T02:40:11.705Z,99.90
2019-02-18T02:42:40.284Z,99.90
2019-02-18T02:45:09.280Z,99.90
2019-02-18T02:47:37.739Z,99.90
2019-02-18T02:50:07.481Z,99.90
2019-02-18T02:52:36.020Z,99.90
2019-02-18T02:55:06.006Z,99.90
2019-02-18T02:57:34.453Z,99.90
2019-02-18T03:00:03.354Z,99.90
2019-02-18T03:02:31.818Z,99.90
2019-02-18T03:05:00.486Z,99.90
2019-02-18T03:07:29.137Z,99.90
2019-02-18T03:09:57.591Z,99.90
2019-02-18T03:12:26.055Z,99.90
2019-02-18T03:14:54.628Z,99.90
2019-02-18T03:17:23.093Z,99.90
2019-02-18T03:19:51.627Z,99.90
2019-02-18T03:22:20.094Z,99.90
2019-02-18T03:25:15.443Z,99.90
2019-02-18T03:27:43.998Z,99.90
2019-02-18T03:30:40.987Z,99.90
2019-02-18T03:33:15.556Z,99.90
2019-02-18T03:35:44.083Z,99.90
2019-02-18T03:38:12.544Z,99.90
2019-02-18T03:40:41.010Z,99.90
2019-02-18T03:43:09.480Z,99.90
2019-02-18T03:45:38.026Z,99.90
2019-02-18T03:48:06.512Z,99.90
2019-02-18T03:50:34.967Z,99.90
2019-02-18T03:53:03.434Z,99.90
2019-02-18T03:55:32.020Z,99.90
2019-02-18T03:58:00.505Z,99.90
2019-02-18T04:00:28.967Z,99.90
2019-02-18T04:02:57.417Z,99.90
2019-02-18T04:05:25.872Z,99.90
2019-02-18T04:07:54.374Z,99.90
2019-02-18T04:10:22.840Z,99.90
2019-02-18T04:12:51.297Z,99.90
2019-02-18T04:15:19.854Z,99.90
2019-02-18T04:17:48.307Z,99.90
2019-02-18T04:20:16.776Z,99.90
2019-02-18T04:22:45.802Z,99.90
2019-02-18T04:25:14.369Z,99.90
2019-02-18T04:27:42.904Z,99.90
2019-02-18T04:30:13.729Z,99.90
2019-02-18T04:32:42.092Z,99.90
2019-02-18T04:35:10.551Z,99.90
2019-02-18T04:37:39.132Z,99.90
2019-02-18T04:40:08.994Z,99.90
2019-02-18T04:42:37.463Z,99.90
2019-02-18T04:45:08.920Z,99.90
2019-02-18T04:47:37.366Z,99.90
2019-02-18T04:50:07.673Z,99.90
2019-02-18T04:52:36.157Z,99.90
2019-02-18T04:55:10.082Z,99.90
2019-02-18T04:57:38.581Z,99.90
2019-02-18T05:00:09.380Z,99.90
2019-02-18T05:02:37.909Z,99.90
2019-02-18T05:05:09.249Z,99.90
2019-02-18T05:07:37.778Z,99.90
2019-02-18T05:10:13.172Z,99.90
2019-02-18T05:12:41.724Z,99.90
2019-02-18T05:15:10.423Z,99.90
2019-02-18T05:17:38.964Z,99.90
2019-02-18T05:20:08.668Z,99.90
2019-02-18T05:22:37.117Z,99.90
2019-02-18T05:25:07.315Z,99.90
2019-02-18T05:27:35.789Z,99.90
2019-02-18T05:30:06.456Z,99.90
2019-02-18T05:32:34.951Z,99.90
2019-02-18T05:35:03.549Z,99.90
2019-02-18T05:37:32.310Z,99.90
2019-02-18T05:40:00.898Z,99.90
2019-02-18T05:42:29.413Z,99.90
2019-02-18T05:44:57.948Z,99.90
2019-02-18T05:47:26.479Z,99.90
2019-02-18T05:49:55.029Z,99.90
2019-02-18T05:52:23.665Z,99.90
2019-02-18T05:54:52.177Z,99.90
2019-02-18T05:57:22.757Z,99.90
2019-02-18T05:59:50.810Z,99.90
2019-02-18T06:02:21.368Z,99.90
2019-02-18T06:04:49.898Z,99.90
2019-02-18T06:07:18.431Z,99.90
2019-02-18T06:09:46.971Z,99.90
2019-02-18T06:12:15.501Z,99.90
2019-02-18T06:14:43.972Z,99.90
2019-02-18T06:17:12.427Z,99.90
2019-02-18T06:19:40.949Z,99.90
2019-02-18T06:22:09.433Z,99.90
2019-02-18T06:24:37.903Z,99.90
2019-02-18T06:27:06.433Z,99.90
2019-02-18T06:29:35.099Z,99.90
2019-02-18T06:32:03.599Z,99.90
2019-02-18T06:34:32.094Z,99.90
2019-02-18T06:37:00.548Z,99.90
2019-02-18T06:39:40.259Z,99.90
2019-02-18T06:41:59.233Z,99.90
2019-02-18T06:44:29.333Z,99.90
2019-02-18T06:46:59.444Z,99.90
2019-02-18T06:49:27.911Z,99.90
2019-02-18T06:51:56.375Z,99.90
2019-02-18T06:54:24.939Z,99.90
2019-02-18T06:57:03.638Z,99.90
2019-02-18T06:59:36.545Z,99.90
2019-02-18T07:02:12.350Z,99.90
2019-02-18T07:04:48.247Z,99.90
2019-02-18T07:07:18.380Z,99.90
2019-02-18T07:09:51.767Z,99.90
2019-02-18T07:12:22.059Z,99.90
2019-02-18T07:14:50.516Z,99.90
2019-02-18T07:17:19.051Z,99.90
2019-02-18T07:19:47.604Z,99.90
2019-02-18T07:22:16.053Z,99.90
2019-02-18T07:24:44.779Z,99.90
2019-02-18T07:27:13.237Z,99.90
2019-02-18T07:29:41.723Z,99.90
2019-02-18T07:32:10.665Z,99.90
2019-02-18T07:34:39.269Z,99.90
2019-02-18T07:37:07.846Z,99.90
2019-02-18T07:39:36.389Z,99.90
2019-02-18T07:42:04.840Z,99.90
2019-02-18T07:44:33.390Z,99.90
2019-02-18T07:47:01.841Z,99.90
2019-02-18T07:49:30.298Z,99.90
2019-02-18T07:51:58.751Z,99.90
2019-02-18T07:54:27.343Z,99.90
2019-02-18T07:56:55.800Z,99.90
2019-02-18T07:59:24.267Z,99.90
2019-02-18T08:01:52.761Z,99.90
2019-02-18T08:04:21.229Z,99.90
2019-02-18T08:06:49.749Z,99.90
2019-02-18T08:09:18.223Z,99.90
2019-02-18T08:11:46.669Z,99.90
2019-02-18T08:14:15.168Z,99.90
2019-02-18T08:16:43.621Z,99.90
2019-02-18T08:19:12.075Z,99.90
2019-02-18T08:21:40.530Z,99.90
2019-02-18T08:24:09.014Z,99.90
2019-02-18T08:26:37.466Z,99.90
2019-02-18T08:29:05.914Z,99.90
2019-02-18T08:31:34.367Z,99.90
2019-02-18T08:34:02.843Z,99.90
2019-02-18T08:36:31.333Z,99.90
2019-02-18T08:38:59.847Z,99.90
2019-02-18T08:41:28.306Z,99.90
2019-02-18T08:43:56.835Z,99.90
2019-02-18T08:46:25.375Z,99.90
2019-02-18T08:48:53.850Z,99.90
2019-02-18T08:51:22.379Z,99.90
2019-02-18T08:53:50.967Z,99.90
2019-02-18T08:56:19.827Z,99.90
2019-02-18T08:58:48.278Z,99.90
2019-02-18T09:01:16.777Z,99.90
2019-02-18T09:03:45.306Z,99.90
2019-02-18T09:06:13.767Z,99.70
2019-02-18T09:08:42.311Z,99.40
2019-02-18T09:11:10.764Z,99.40
2019-02-18T09:13:39.235Z,98.80
2019-02-18T09:16:15.065Z,98.80
2019-02-18T09:18:43.535Z,98.40
2019-02-18T09:21:11.999Z,97.70
2019-02-18T09:23:48.188Z,97.60
2019-02-18T09:26:17.490Z,97.40
2019-02-18T09:28:45.955Z,97.20
2019-02-18T09:31:14.412Z,96.80
2019-02-18T09:33:42.878Z,96.40
2019-02-18T09:36:11.437Z,96.10
2019-02-18T09:38:39.900Z,96.00
2019-02-18T09:41:08.426Z,95.90
2019-02-18T09:43:36.895Z,95.80
2019-02-18T09:46:05.581Z,95.50
2019-02-18T09:48:34.590Z,95.40
2019-02-18T09:51:03.114Z,94.40
2019-02-18T09:53:31.670Z,94.30
2019-02-18T09:56:00.193Z,94.70
2019-02-18T09:58:28.661Z,94.30
2019-02-18T10:00:57.118Z,94.30
2019-02-18T10:03:32.003Z,94.40
2019-02-18T10:05:55.802Z,94.70
2019-02-18T10:08:24.274Z,94.40
2019-02-18T10:10:55.892Z,94.40
2019-02-18T10:13:42.261Z,94.40
2019-02-18T10:16:10.805Z,94.30
2019-02-18T10:18:39.370Z,94.20
2019-02-18T10:21:07.918Z,94.00
2019-02-18T10:23:36.397Z,94.10
2019-02-18T10:26:04.930Z,93.90
2019-02-18T10:28:33.416Z,93.70
2019-02-18T10:31:01.937Z,93.40
2019-02-18T10:33:30.403Z,93.10
2019-02-18T10:35:58.950Z,92.80
2019-02-18T10:38:27.455Z,92.40
2019-02-18T10:41:06.126Z,92.30
2019-02-18T10:43:32.398Z,92.20
2019-02-18T10:45:56.369Z,92.10
2019-02-18T10:48:25.415Z,91.80
2019-02-18T10:50:53.968Z,91.80
2019-02-18T10:53:22.485Z,91.70
2019-02-18T10:55:51.130Z,91.70
2019-02-18T10:58:19.671Z,91.50
2019-02-18T11:00:48.383Z,91.40
2019-02-18T11:03:16.844Z,91.40
2019-02-18T11:05:45.375Z,91.40
2019-02-18T11:08:13.853Z,91.10
2019-02-18T11:10:42.447Z,90.90
2019-02-18T11:13:10.903Z,90.80
2019-02-18T11:15:39.517Z,90.40
2019-02-18T11:18:08.070Z,90.10
2019-02-18T11:20:36.559Z,90.10
2019-02-18T11:23:05.020Z,89.80
2019-02-18T11:25:33.711Z,89.50
2019-02-18T11:28:02.883Z,89.40
2019-02-18T11:30:31.435Z,88.80
2019-02-18T11:33:00.351Z,88.40
2019-02-18T11:35:48.235Z,88.40
2019-02-18T11:38:17.275Z,88.30
2019-02-18T11:40:45.766Z,87.70
2019-02-18T11:43:14.304Z,88.40
2019-02-18T11:45:42.855Z,89.10
2019-02-18T11:48:11.386Z,88.70
2019-02-18T11:50:39.860Z,88.90
2019-02-18T11:53:08.801Z,88.90
2019-02-18T11:55:38.942Z,89.00
2019-02-18T11:58:07.470Z,89.50
2019-02-18T12:00:36.015Z,89.50
2019-02-18T12:03:11.566Z,89.60
2019-02-18T12:05:34.742Z,89.10
2019-02-18T12:08:03.929Z,88.50
2019-02-18T12:10:32.495Z,86.90
2019-02-18T12:13:01.022Z,85.50
2019-02-18T12:15:29.567Z,83.80
2019-02-18T12:17:58.124Z,82.10
2019-02-18T12:20:26.583Z,80.70
2019-02-18T12:22:55.049Z,79.20
2019-02-18T12:25:24.105Z,77.30
2019-02-18T12:27:52.651Z,76.00
2019-02-18T12:30:21.190Z,75.00
2019-02-18T12:32:49.734Z,74.00
2019-02-18T12:35:18.268Z,73.10
2019-02-18T12:37:54.874Z,72.70
2019-02-18T12:40:17.031Z,71.70
2019-02-18T12:42:45.571Z,71.20
2019-02-18T12:45:14.279Z,70.80
2019-02-18T12:47:43.088Z,70.10
2019-02-18T12:50:12.479Z,69.90
2019-02-18T12:52:41.452Z,69.60
2019-02-18T12:55:11.584Z,69.40
2019-02-18T12:57:40.675Z,69.10
2019-02-18T13:00:12.542Z,69.00
2019-02-18T13:02:44.623Z,68.60
2019-02-18T13:05:13.885Z,69.30
2019-02-18T13:07:42.494Z,69.50
2019-02-18T13:10:11.842Z,69.40
2019-02-18T13:12:40.699Z,69.10
2019-02-18T13:15:14.660Z,68.80
2019-02-18T13:17:43.392Z,68.30
2019-02-18T13:20:12.178Z,68.50
2019-02-18T13:22:40.775Z,68.80
2019-02-18T13:25:10.354Z,69.50
2019-02-18T13:27:39.005Z,69.90
2019-02-18T13:30:13.675Z,70.10
2019-02-18T13:32:42.258Z,70.00
2019-02-18T13:35:10.939Z,69.90
2019-02-18T13:37:39.466Z,70.00
2019-02-18T13:40:08.675Z,70.00
2019-02-18T13:42:37.205Z,69.90
2019-02-18T13:45:08.209Z,69.50
2019-02-18T13:47:36.740Z,69.70
2019-02-18T13:50:11.024Z,69.50
2019-02-18T13:52:39.660Z,69.50
2019-02-18T13:55:10.644Z,69.50
2019-02-18T13:57:39.650Z,69.60
2019-02-18T14:00:15.544Z,69.50
2019-02-18T14:02:44.096Z,69.50
2019-02-18T14:05:13.189Z,69.30
2019-02-18T14:07:41.713Z,69.40
2019-02-18T14:10:10.891Z,69.50
2019-02-18T14:12:39.718Z,69.70
2019-02-18T14:15:11.257Z,69.80
2019-02-18T14:17:39.902Z,69.70
2019-02-18T14:20:17.267Z,70.00
2019-02-18T14:22:45.843Z,70.30
2019-02-18T14:25:15.419Z,70.90
2019-02-18T14:27:44.032Z,71.30
2019-02-18T14:30:17.769Z,71.80
2019-02-18T14:32:46.845Z,72.40
2019-02-18T14:35:17.653Z,72.50
2019-02-18T14:37:46.527Z,72.40
2019-02-18T14:40:17.539Z,72.40
2019-02-18T14:42:46.545Z,73.00
2019-02-18T14:45:15.814Z,73.40
2019-02-18T14:47:44.354Z,73.90
2019-02-18T14:50:14.823Z,74.20
2019-02-18T14:52:43.435Z,74.80
2019-02-18T14:55:11.968Z,75.70
2019-02-18T14:57:40.518Z,76.30
2019-02-18T15:00:16.127Z,76.90
2019-02-18T15:02:44.593Z,77.80
2019-02-18T15:05:13.120Z,78.30
2019-02-18T15:07:42.165Z,78.90
2019-02-18T15:10:11.135Z,79.50
2019-02-18T15:12:39.735Z,80.00
2019-02-18T15:15:08.343Z,80.60
2019-02-18T15:17:36.897Z,81.10
2019-02-18T15:20:07.817Z,81.30
2019-02-18T15:22:36.819Z,82.10
2019-02-18T15:25:08.204Z,83.00
2019-02-18T15:27:36.825Z,83.60
2019-02-18T15:30:15.093Z,84.40
2019-02-18T15:32:43.656Z,85.50
2019-02-18T15:35:14.286Z,86.40
2019-02-18T15:37:42.971Z,87.40
2019-02-18T15:40:13.245Z,88.50
2019-02-18T15:42:42.728Z,89.60
2019-02-18T15:45:11.957Z,90.00
2019-02-18T15:47:41.355Z,90.50
2019-02-18T15:50:11.920Z,91.00
2019-02-18T15:52:40.534Z,91.50
2019-02-18T15:55:10.525Z,91.90
2019-02-18T15:57:39.093Z,92.30
2019-02-18T16:00:22.661Z,92.70
2019-02-18T16:02:51.881Z,93.00
2019-02-18T16:05:20.427Z,93.40
2019-02-18T16:07:49.043Z,93.80
2019-02-18T16:10:17.585Z,94.00
2019-02-18T16:12:50.970Z,94.30
2019-02-18T16:15:16.335Z,94.60
2019-02-18T16:17:45.351Z,94.90
2019-02-18T16:20:14.695Z,95.10
2019-02-18T16:22:43.269Z,95.30
2019-02-18T16:25:23.720Z,95.60
2019-02-18T16:27:52.248Z,95.90
2019-02-18T16:30:21.682Z,96.10
2019-02-18T16:32:50.211Z,96.40
2019-02-18T16:35:19.696Z,96.60
2019-02-18T16:37:48.274Z,96.80
2019-02-18T16:40:18.244Z,97.00
2019-02-18T16:42:47.046Z,97.10
2019-02-18T16:45:16.118Z,97.40
2019-02-18T16:47:44.941Z,97.50
2019-02-18T16:50:13.918Z,97.70
2019-02-18T16:52:42.461Z,97.90
2019-02-18T16:55:14.073Z,97.90
2019-02-18T16:57:42.647Z,98.20
2019-02-18T17:00:18.947Z,98.40
2019-02-18T17:02:47.487Z,98.60
2019-02-18T17:05:16.191Z,98.70
2019-02-18T17:07:44.750Z,98.80
2019-02-18T17:10:13.874Z,99.00
2019-02-18T17:12:42.603Z,99.20
2019-02-18T17:15:13.265Z,99.30
2019-02-18T17:17:41.953Z,99.40
2019-02-18T17:20:10.911Z,99.60
2019-02-18T17:22:39.521Z,99.70
2019-02-18T17:25:11.140Z,99.80
2019-02-18T17:27:39.686Z,99.80
2019-02-18T17:30:15.726Z,99.90
2019-02-18T17:32:44.367Z,99.90
2019-02-18T17:35:14.311Z,99.90
2019-02-18T17:37:42.911Z,99.90
2019-02-18T17:40:13.199Z,99.90
2019-02-18T17:42:42.214Z,99.90
2019-02-18T17:45:17.950Z,99.90
2019-02-18T17:47:46.599Z,99.90
2019-02-18T17:50:16.565Z,99.90
2019-02-18T17:52:45.895Z,99.90
2019-02-18T17:55:19.177Z,99.90
2019-02-18T17:57:47.764Z,99.90
2019-02-18T18:00:23.270Z,99.90
2019-02-18T18:02:51.899Z,99.90
2019-02-18T18:05:20.515Z,99.90
2019-02-18T18:07:49.456Z,99.90
2019-02-18T18:10:18.363Z,99.90
2019-02-18T18:12:46.828Z,99.90
2019-02-18T18:15:17.870Z,99.90
2019-02-18T18:17:46.586Z,99.90
2019-02-18T18:20:15.752Z,99.90
2019-02-18T18:22:44.307Z,99.90
2019-02-18T18:25:14.470Z,99.90
2019-02-18T18:27:43.001Z,99.90
2019-02-18T18:30:14.275Z,99.90
2019-02-18T18:32:42.988Z,99.90
2019-02-18T18:35:13.717Z,99.90
2019-02-18T18:37:42.236Z,99.90
2019-02-18T18:40:13.886Z,99.90
2019-02-18T18:42:42.681Z,99.90
2019-02-18T18:45:15.525Z,99.90
2019-02-18T18:47:43.942Z,99.90
2019-02-18T18:50:17.875Z,99.90
2019-02-18T18:52:46.915Z,99.90
2019-02-18T18:55:15.610Z,99.90
2019-02-18T18:57:44.238Z,99.90
2019-02-18T19:00:26.744Z,99.90
2019-02-18T19:02:55.286Z,99.90
2019-02-18T19:05:23.833Z,99.90
2019-02-18T19:07:52.368Z,99.90
2019-02-18T19:10:21.188Z,99.90
2019-02-18T19:12:49.740Z,99.90
2019-02-18T19:15:18.935Z,99.90
2019-02-18T19:17:47.473Z,99.90
2019-02-18T19:20:16.312Z,99.90
2019-02-18T19:22:44.849Z,99.90
2019-02-18T19:25:13.833Z,99.90
2019-02-18T19:27:42.382Z,99.90
2019-02-18T19:30:19.475Z,99.90
2019-02-18T19:32:48.222Z,99.90
2019-02-18T19:35:16.767Z,99.90
2019-02-18T19:37:45.301Z,99.90
2019-02-18T19:40:14.758Z,99.90
2019-02-18T19:42:43.310Z,99.90
2019-02-18T19:45:15.171Z,99.90
2019-02-18T19:47:44.108Z,99.90
2019-02-18T19:50:12.702Z,99.90
2019-02-18T19:52:41.170Z,99.90
2019-02-18T19:55:11.277Z,99.90
2019-02-18T19:57:39.822Z,99.90
2019-02-18T20:00:11.468Z,99.90
2019-02-18T20:02:40.033Z,99.90
2019-02-18T20:05:09.740Z,99.90
2019-02-18T20:07:38.288Z,99.90
2019-02-18T20:10:09.278Z,99.90
2019-02-18T20:12:37.809Z,99.90
2019-02-18T20:15:09.488Z,99.90
2019-02-18T20:17:38.071Z,99.90
2019-02-18T20:20:09.556Z,99.90
2019-02-18T20:22:38.157Z,99.90
2019-02-18T20:25:08.458Z,99.90
2019-02-18T20:27:37.370Z,99.90
2019-02-18T20:30:12.313Z,99.90
2019-02-18T20:32:40.845Z,99.90
2019-02-18T20:35:12.781Z,99.90
2019-02-18T20:37:41.324Z,99.90
2019-02-18T20:40:11.282Z,99.90
2019-02-18T20:42:40.319Z,99.90
2019-02-18T20:45:15.254Z,99.90
2019-02-18T20:47:43.809Z,99.90
2019-02-18T20:50:14.085Z,99.90
2019-02-18T20:52:42.706Z,99.90
2019-02-18T20:55:13.305Z,99.90
2019-02-18T20:57:41.905Z,99.90
2019-02-18T21:00:14.144Z,99.90
2019-02-18T21:02:42.612Z,99.90
2019-02-18T21:05:11.151Z,99.90
2019-02-18T21:07:39.707Z,99.90
2019-02-18T21:10:19.655Z,99.90
2019-02-18T21:12:48.192Z,99.90
2019-02-18T21:15:17.146Z,99.90
2019-02-18T21:17:45.682Z,99.90
2019-02-18T21:20:15.526Z,99.90
2019-02-18T21:22:44.070Z,99.90
2019-02-18T21:25:12.929Z,99.90
2019-02-18T21:27:41.492Z,99.90
2019-02-18T21:30:15.181Z,99.90
2019-02-18T21:32:43.720Z,99.90
2019-02-18T21:35:12.602Z,99.90
2019-02-18T21:37:41.581Z,99.90
2019-02-18T21:40:11.456Z,99.90
2019-02-18T21:42:40.163Z,99.90
2019-02-18T21:45:11.659Z,99.90
2019-02-18T21:47:40.207Z,99.90
2019-02-18T21:50:10.210Z,99.90
2019-02-18T21:52:39.168Z,99.90
2019-02-18T21:55:09.750Z,99.90
2019-02-18T21:57:38.346Z,99.90
2019-02-18T22:00:16.948Z,99.90
2019-02-18T22:02:45.469Z,99.90
2019-02-18T22:05:14.880Z,99.90
2019-02-18T22:07:43.693Z,99.90
2019-02-18T22:10:12.257Z,99.90
2019-02-18T22:12:40.842Z,99.90
2019-02-18T22:15:12.779Z,99.90
2019-02-18T22:17:41.324Z,99.90
2019-02-18T22:20:11.685Z,99.90
2019-02-18T22:22:40.152Z,99.90
2019-02-18T22:25:10.918Z,99.90
2019-02-18T22:27:39.518Z,99.90
2019-02-18T22:30:11.060Z,99.90
2019-02-18T22:32:39.596Z,99.90
2019-02-18T22:35:08.396Z,99.90
2019-02-18T22:37:37.334Z,99.90
2019-02-18T22:40:08.251Z,99.90
2019-02-18T22:42:36.743Z,99.90
2019-02-18T22:45:07.408Z,99.90
2019-02-18T22:47:35.903Z,99.90
2019-02-18T22:50:04.809Z,99.90
2019-02-18T22:52:33.752Z,99.90
2019-02-18T22:55:02.310Z,99.90
2019-02-18T22:57:30.858Z,99.90
2019-02-18T22:59:59.539Z,99.90
2019-02-18T23:02:28.086Z,99.90
2019-02-18T23:04:56.625Z,99.90
2019-02-18T23:07:25.200Z,99.90
2019-02-18T23:09:54.038Z,99.90
2019-02-18T23:12:22.578Z,99.90
2019-02-18T23:14:51.134Z,99.90
2019-02-18T23:17:19.665Z,99.90
2019-02-18T23:19:48.203Z,99.90
2019-02-18T23:22:16.781Z,99.90
2019-02-18T23:24:45.320Z,99.90
2019-02-18T23:27:13.847Z,99.90
2019-02-18T23:29:42.418Z,99.90
2019-02-18T23:32:10.958Z,99.90
2019-02-18T23:34:39.505Z,99.90
2019-02-18T23:37:08.039Z,99.90
2019-02-18T23:39:36.655Z,99.90
2019-02-18T23:42:05.173Z,99.90
2019-02-18T23:44:33.839Z,99.90
2019-02-18T23:47:02.290Z,99.90
2019-02-18T23:49:30.755Z,99.90
2019-02-18T23:51:59.289Z,99.90
2019-02-18T23:54:27.877Z,99.90
2019-02-18T23:56:56.406Z,99.90
2019-02-18T23:59:24.932Z,99.90
